Time;durP1;ratioP1;P1;durP2;ratioP2;P2;SDS_P1;SDS_P2;PMS_P1;PMS_P2;Temp;Humidity;BMP_temperature;BMP_pressure;BME280_temperature;BME280_humidity;BME280_pressure;Samples;Min_cycle;Max_cycle;Signal;HPM_P1;HPM_P2
2022/03/09 00:02:23;;;;;;;7.90;3.72;;;;;;;-7.68;52.39;100497.25;5015954;28;20468;-83
2022/03/09 00:04:50;;;;;;;8.52;3.90;;;;;;;-7.70;52.60;100490.25;5033928;28;20053;-81
2022/03/09 00:07:18;;;;;;;6.53;3.63;;;;;;;-7.63;52.40;100507.78;5033933;28;20088;-84
2022/03/09 00:09:45;;;;;;;5.53;3.50;;;;;;;-7.75;52.21;100488.97;5032779;28;20407;-84
2022/03/09 00:12:15;;;;;;;10.48;4.38;;;;;;;-7.88;52.81;100498.06;5038978;28;20060;-81
2022/03/09 00:14:42;;;;;;;11.18;3.95;;;;;;;-7.96;53.04;100490.56;5037872;28;20068;-83
2022/03/09 00:17:09;;;;;;;11.07;4.35;;;;;;;-8.04;52.41;100502.59;5033497;28;20049;-83
2022/03/09 00:19:36;;;;;;;8.43;3.88;;;;;;;-8.13;52.94;100500.13;5033231;28;20092;-82
2022/03/09 00:22:03;;;;;;;8.95;4.47;;;;;;;-8.19;53.16;100517.34;5033854;28;20049;-82
2022/03/09 00:24:32;;;;;;;7.57;4.00;;;;;;;-8.20;53.23;100517.19;5039583;28;20083;-81
2022/03/09 00:27:00;;;;;;;7.80;3.80;;;;;;;-8.29;53.29;100507.16;5052955;28;20063;-82
2022/03/09 00:29:30;;;;;;;;;;;;;;;-8.34;53.23;100503.31;5053733;28;20287;-79
2022/03/09 00:31:58;;;;;;;7.60;3.97;;;;;;;-8.30;53.15;100518.94;5046487;28;19924;-79
2022/03/09 00:34:25;;;;;;;9.65;3.97;;;;;;;-8.63;53.56;100466.19;5039668;28;20136;-80
2022/03/09 00:36:52;;;;;;;8.43;3.97;;;;;;;-8.44;52.97;100506.72;5033634;28;20144;-80
2022/03/09 00:39:19;;;;;;;6.82;3.97;;;;;;;-8.46;53.36;100518.34;5035454;28;20049;-78
2022/03/09 00:41:45;;;;;;;7.57;4.30;;;;;;;-8.58;53.40;100495.38;5033254;28;20144;-78
2022/03/09 00:44:12;;;;;;;8.88;4.40;;;;;;;-8.44;53.20;100514.31;5033201;28;20081;-79
2022/03/09 00:46:39;;;;;;;8.40;4.38;;;;;;;-8.51;53.47;100523.00;5032948;28;20057;-80
2022/03/09 00:49:06;;;;;;;12.93;4.25;;;;;;;-8.61;53.22;100530.53;5032926;28;20050;-80
2022/03/09 00:51:35;;;;;;;9.90;4.07;;;;;;;-8.76;53.21;100521.56;5038144;28;20081;-79
2022/03/09 00:54:02;;;;;;;9.10;4.15;;;;;;;-8.79;53.65;100531.44;5032829;28;20087;-80
2022/03/09 00:56:29;;;;;;;9.43;4.13;;;;;;;-8.95;53.50;100517.38;5051752;28;20107;-80
2022/03/09 00:58:56;;;;;;;8.00;3.65;;;;;;;-9.04;53.75;100525.78;5033577;28;20140;-80
2022/03/09 01:01:23;;;;;;;6.50;3.70;;;;;;;-9.08;53.30;100537.25;5031497;28;20394;-79
2022/03/09 01:03:50;;;;;;;5.03;3.35;;;;;;;-9.12;53.87;100546.22;5032731;28;20054;-79
2022/03/09 01:06:17;;;;;;;7.65;3.75;;;;;;;-9.31;53.94;100514.94;5032841;28;20054;-79
2022/03/09 01:08:44;;;;;;;8.40;3.63;;;;;;;-9.12;53.97;100542.78;5032894;28;20532;-78
2022/03/09 01:11:11;;;;;;;5.63;3.53;;;;;;;-9.11;53.43;100539.53;5032546;28;20053;-79
2022/03/09 01:13:38;;;;;;;8.57;3.28;;;;;;;-9.16;53.43;100553.38;5032742;28;20053;-80
2022/03/09 01:16:05;;;;;;;7.22;3.58;;;;;;;-9.24;53.69;100544.22;5032716;28;20053;-80
2022/03/09 01:18:33;;;;;;;6.53;3.35;;;;;;;-9.31;53.64;100528.47;5032467;28;20081;-81
2022/03/09 01:21:00;;;;;;;5.28;3.15;;;;;;;-9.41;53.65;100515.69;5032842;28;20053;-79
2022/03/09 01:23:27;;;;;;;7.50;3.33;;;;;;;-9.37;54.22;100534.59;5032740;28;20053;-79
2022/03/09 01:25:54;;;;;;;7.28;3.47;;;;;;;-9.40;54.07;100539.34;5032428;28;20064;-79
2022/03/09 01:28:21;;;;;;;8.50;3.55;;;;;;;-9.58;53.77;100513.25;5032467;28;20041;-80
2022/03/09 01:30:48;;;;;;;8.40;3.67;;;;;;;-9.54;54.24;100555.78;5036006;28;20061;-79
2022/03/09 01:33:14;;;;;;;9.93;3.55;;;;;;;-9.58;54.14;100547.03;5036624;28;20056;-80
2022/03/09 01:35:41;;;;;;;7.47;3.58;;;;;;;-9.65;54.62;100557.31;5036297;28;20053;-81
2022/03/09 01:38:08;;;;;;;6.88;3.30;;;;;;;-9.85;54.83;100504.88;5036362;28;20053;-80
2022/03/09 01:40:35;;;;;;;7.60;3.65;;;;;;;-9.56;54.40;100567.41;5036209;28;20589;-80
2022/03/09 01:43:02;;;;;;;7.43;4.32;;;;;;;-9.77;54.43;100546.03;5036534;28;20057;-80
2022/03/09 01:45:29;;;;;;;12.05;4.68;;;;;;;-9.62;54.75;100571.88;5036079;28;20525;-79
2022/03/09 01:47:56;;;;;;;7.88;4.30;;;;;;;-9.81;54.80;100554.97;5036438;28;20111;-79
2022/03/09 01:50:23;;;;;;;6.82;3.50;;;;;;;-9.84;54.63;100567.34;5036269;28;20103;-80
2022/03/09 01:52:50;;;;;;;9.65;4.18;;;;;;;-9.85;54.86;100587.41;5036567;28;20058;-81
2022/03/09 01:55:17;;;;;;;8.73;3.65;;;;;;;-10.04;54.92;100554.41;5036577;28;20080;-81
2022/03/09 01:57:43;;;;;;;6.60;3.60;;;;;;;-10.00;55.28;100580.16;5035008;28;20052;-81
2022/03/09 02:00:11;;;;;;;9.15;3.90;;;;;;;-10.11;54.98;100588.31;5036345;28;20061;-81
2022/03/09 02:02:39;;;;;;;10.85;3.60;;;;;;;-10.22;55.35;100582.22;5036373;28;20053;-81
2022/03/09 02:05:09;;;;;;;11.32;4.20;;;;;;;-10.31;55.35;100584.81;5037402;28;20053;-81
2022/03/09 02:10:25;;;;;;;9.50;4.20;;;;;;;-10.47;55.73;100557.91;5055598;28;20049;-80
2022/03/09 02:12:52;;;;;;;9.82;4.18;;;;;;;-10.42;55.77;100609.78;5055733;28;20048;-81
2022/03/09 02:15:19;;;;;;;10.38;4.45;;;;;;;-10.50;55.89;100603.97;5055967;28;20064;-80
2022/03/09 02:17:45;;;;;;;7.05;4.15;;;;;;;-10.62;55.63;100591.03;5052312;28;20060;-81
2022/03/09 02:20:12;;;;;;;10.38;4.78;;;;;;;-10.53;55.54;100604.56;5042137;28;20053;-80
2022/03/09 02:22:42;;;;;;;7.72;4.18;;;;;;;-10.56;56.02;100603.34;5054978;28;20615;-80
2022/03/09 02:25:14;;;;;;;9.00;4.95;;;;;;;-10.59;56.03;100605.59;5041088;28;20069;-81
2022/03/09 02:27:43;;;;;;;7.95;4.38;;;;;;;-10.84;56.04;100564.41;5040183;28;20056;-79
2022/03/09 02:30:14;;;;;;;10.70;5.07;;;;;;;-10.63;56.37;100606.91;5039675;28;20063;-81
2022/03/09 02:32:42;;;;;;;8.30;4.97;;;;;;;-10.81;56.07;100572.28;5020410;28;20180;-80
2022/03/09 02:35:11;;;;;;;10.88;4.00;;;;;;;-10.85;56.27;100585.34;5045614;28;20076;-81
2022/03/09 02:37:39;;;;;;;6.45;3.33;;;;;;;-10.78;56.28;100608.81;5055421;28;20076;-80
2022/03/09 02:40:09;;;;;;;8.25;3.67;;;;;;;-10.81;56.48;100610.16;5055123;28;20060;-80
2022/03/09 02:42:38;;;;;;;8.95;4.20;;;;;;;-10.89;56.24;100608.50;5054256;28;20416;-80
2022/03/09 02:45:08;;;;;;;8.82;4.10;;;;;;;-10.86;56.80;100632.44;5054329;28;20060;-81
2022/03/09 02:47:39;;;;;;;8.68;3.72;;;;;;;-10.82;56.67;100629.44;5053449;28;20052;-81
2022/03/09 02:50:06;;;;;;;6.45;3.63;;;;;;;-10.83;56.57;100631.84;5055195;28;20562;-80
2022/03/09 02:52:37;;;;;;;9.85;3.88;;;;;;;-10.96;56.31;100627.19;5054341;28;20057;-82
2022/03/09 02:55:06;;;;;;;10.48;4.03;;;;;;;-11.07;56.43;100628.63;5054356;28;20115;-81
2022/03/09 02:57:33;;;;;;;8.77;4.57;;;;;;;-10.97;56.41;100643.06;5054576;28;20529;-81
2022/03/09 03:00:01;;;;;;;6.60;3.75;;;;;;;-11.20;56.24;100593.72;5055160;28;20064;-82
2022/03/09 03:02:28;;;;;;;8.90;4.28;;;;;;;-11.08;56.76;100606.66;5054376;28;20554;-80
2022/03/09 03:04:56;;;;;;;10.75;3.97;;;;;;;-10.96;56.88;100640.69;5054519;28;20489;-80
2022/03/09 03:07:22;;;;;;;8.20;3.63;;;;;;;-11.16;56.65;100625.19;5052968;28;20573;-82
2022/03/09 03:09:49;;;;;;;10.48;4.40;;;;;;;-11.22;56.64;100633.03;5054671;28;20513;-80
2022/03/09 03:12:16;;;;;;;10.18;4.30;;;;;;;-11.30;56.88;100627.94;5054294;28;20060;-81
2022/03/09 03:14:45;;;;;;;9.60;4.07;;;;;;;-11.29;56.82;100649.91;5054984;28;20057;-81
2022/03/09 03:17:12;;;;;;;8.32;3.75;;;;;;;-11.44;56.90;100635.00;5054755;28;20135;-81
2022/03/09 03:19:39;;;;;;;13.00;4.25;;;;;;;-11.44;57.44;100624.94;5054158;28;20416;-82
2022/03/09 03:22:06;;;;;;;8.20;4.10;;;;;;;-11.26;56.99;100655.28;5053174;28;20505;-81
2022/03/09 03:24:33;;;;;;;9.68;4.50;;;;;;;-11.30;56.97;100659.09;5054735;28;20064;-81
2022/03/09 03:27:00;;;;;;;9.02;3.72;;;;;;;-11.48;57.03;100626.97;5056821;28;20049;-82
2022/03/09 03:29:27;;;;;;;7.25;3.75;;;;;;;-11.40;57.12;100644.69;5054787;28;20052;-81
2022/03/09 03:31:53;;;;;;;10.38;4.38;;;;;;;-11.44;56.84;100657.72;5069481;28;20056;-80
2022/03/09 03:34:20;;;;;;;9.60;3.75;;;;;;;-11.46;57.48;100654.13;5066085;28;20095;-81
2022/03/09 03:36:47;;;;;;;8.35;4.00;;;;;;;-11.62;56.96;100628.97;5052690;28;20143;-81
2022/03/09 03:39:14;;;;;;;12.20;3.90;;;;;;;-11.51;56.79;100664.47;5053972;28;20053;-81
2022/03/09 03:41:41;;;;;;;11.40;4.20;;;;;;;-11.57;57.46;100667.25;5053849;28;20053;-81
2022/03/09 03:44:08;;;;;;;9.32;4.50;;;;;;;-11.70;57.34;100656.63;5053591;28;20460;-81
2022/03/09 03:46:35;;;;;;;9.18;4.30;;;;;;;-11.75;57.34;100644.44;5053797;28;20049;-82
2022/03/09 03:49:03;;;;;;;7.90;4.00;;;;;;;-11.66;57.50;100661.25;5053479;28;20428;-80
2022/03/09 03:51:30;;;;;;;9.27;4.22;;;;;;;-11.69;57.30;100671.03;5053481;28;20085;-81
2022/03/09 03:53:57;;;;;;;10.57;4.40;;;;;;;-11.75;57.51;100671.28;5052139;28;20501;-80
2022/03/09 03:56:24;;;;;;;11.43;4.43;;;;;;;-11.80;57.60;100667.41;5053198;28;20049;-80
2022/03/09 03:58:51;;;;;;;7.10;3.35;;;;;;;-11.83;57.62;100672.13;5052097;28;20061;-79
2022/03/09 04:01:18;;;;;;;9.13;3.92;;;;;;;-11.85;57.84;100671.06;5052128;28;20055;-79
2022/03/09 04:03:45;;;;;;;8.27;4.03;;;;;;;-11.88;57.69;100680.88;5053534;28;20085;-79
2022/03/09 04:06:12;;;;;;;11.10;4.70;;;;;;;-12.13;57.67;100634.56;5052885;28;20075;-81
2022/03/09 04:08:40;;;;;;;9.80;4.45;;;;;;;-11.93;57.81;100684.53;5052960;28;20608;-81
2022/03/09 04:11:07;;;;;;;8.02;4.00;;;;;;;-12.16;57.36;100651.16;5053164;28;20056;-81
2022/03/09 04:13:35;;;;;;;7.90;3.95;;;;;;;-12.14;57.76;100656.34;5052691;28;20056;-80
2022/03/09 04:16:02;;;;;;;11.88;4.30;;;;;;;-12.08;57.63;100661.16;5053502;28;20060;-81
2022/03/09 04:18:30;;;;;;;7.40;3.90;;;;;;;-11.99;57.55;100678.13;5053191;28;20134;-81
2022/03/09 04:20:57;;;;;;;8.82;3.70;;;;;;;-12.06;57.80;100678.22;5053114;28;20045;-80
2022/03/09 04:23:24;;;;;;;10.07;4.82;;;;;;;-11.94;57.58;100692.81;5052882;28;20102;-80
2022/03/09 04:25:51;;;;;;;8.65;4.25;;;;;;;-12.10;57.16;100672.69;5053045;28;20147;-82
2022/03/09 04:28:18;;;;;;;11.35;4.47;;;;;;;-12.13;57.46;100665.69;5052335;28;20080;-79
2022/03/09 04:30:44;;;;;;;8.57;4.30;;;;;;;-11.91;57.59;100686.50;5052066;28;20457;-79
2022/03/09 04:33:12;;;;;;;9.23;4.28;;;;;;;-11.99;57.06;100684.78;5051973;28;20139;-79
2022/03/09 04:35:38;;;;;;;8.88;4.03;;;;;;;-11.94;57.67;100713.88;5031646;28;20059;-79
2022/03/09 04:38:08;;;;;;;8.27;4.13;;;;;;;-11.96;57.43;100713.72;5032523;28;20071;-79
2022/03/09 04:40:35;;;;;;;9.95;4.25;;;;;;;-11.96;57.59;100705.25;5032491;28;20199;-80
2022/03/09 04:43:02;;;;;;;8.50;4.00;;;;;;;-11.80;57.24;100720.34;5033333;28;20056;-78
2022/03/09 04:45:28;;;;;;;12.55;4.28;;;;;;;-11.86;57.20;100722.22;5033752;28;20072;-79
2022/03/09 04:47:55;;;;;;;11.63;4.10;;;;;;;-12.05;57.35;100681.63;5036470;28;20490;-79
2022/03/09 04:50:22;;;;;;;7.75;3.47;;;;;;;-11.82;57.14;100730.25;5035447;28;20075;-81
2022/03/09 04:52:49;;;;;;;9.65;4.18;;;;;;;-11.79;57.14;100738.13;5032699;28;20057;-79
2022/03/09 04:55:17;;;;;;;14.45;4.72;;;;;;;-11.78;56.92;100741.56;5047537;28;20417;-77
2022/03/09 04:57:44;;;;;;;11.15;4.07;;;;;;;-11.81;56.75;100733.66;5052074;28;20049;-79
2022/03/09 05:00:11;;;;;;;12.02;4.28;;;;;;;-11.76;56.90;100740.97;5048349;28;20080;-79
2022/03/09 05:02:38;;;;;;;9.32;4.00;;;;;;;-11.68;56.49;100743.41;5051869;28;20040;-79
2022/03/09 05:05:06;;;;;;;6.68;3.50;;;;;;;-11.75;56.64;100726.75;5054624;28;20072;-79
2022/03/09 05:07:33;;;;;;;7.45;3.78;;;;;;;-11.88;56.68;100701.91;5053601;28;20075;-78
2022/03/09 05:10:04;;;;;;;10.68;4.40;;;;;;;-11.52;56.15;100754.38;5056592;28;20053;-79
2022/03/09 05:12:43;;;;;;;8.38;3.80;;;;;;;-11.42;56.30;100746.13;5054994;28;20140;-80
2022/03/09 05:15:10;;;;;;;9.27;4.00;;;;;;;-11.25;56.17;100752.91;5054120;28;20079;-81
2022/03/09 05:17:44;;;;;;;11.15;4.57;;;;;;;-11.09;55.66;100745.31;5046491;28;20123;-80
2022/03/09 05:20:13;;;;;;;10.15;3.90;;;;;;;-10.67;54.99;100746.22;5036350;28;20061;-79
2022/03/09 05:22:40;;;;;;;9.35;4.03;;;;;;;-10.65;54.89;100742.22;5036157;28;20139;-79
2022/03/09 05:25:08;;;;;;;11.07;4.45;;;;;;;-10.62;54.49;100747.59;5036547;28;20505;-79
2022/03/09 05:27:38;;;;;;;7.10;3.90;;;;;;;-10.63;54.72;100727.25;5036058;28;20520;-81
2022/03/09 05:30:06;;;;;;;7.72;4.22;;;;;;;-10.35;54.07;100753.63;5036476;28;20139;-78
2022/03/09 05:32:33;;;;;;;6.88;3.47;;;;;;;-10.27;53.72;100742.63;5068171;28;20118;-79
2022/03/09 05:35:00;;;;;;;9.05;3.83;;;;;;;-10.20;53.92;100751.69;5036301;28;20509;-78
2022/03/09 05:37:34;;;;;;;6.13;2.88;;;;;;;-10.15;54.00;100764.06;5036052;28;20498;-78
2022/03/09 05:40:01;;;;;;;10.68;3.85;;;;;;;-10.15;53.93;100761.53;5036901;28;20053;-80
2022/03/09 05:42:29;;;;;;;8.73;4.18;;;;;;;-9.85;53.02;100761.84;5036325;28;20136;-79
2022/03/09 05:44:55;;;;;;;11.73;4.55;;;;;;;-9.68;52.48;100775.44;5036006;28;20079;-79
2022/03/09 05:47:42;;;;;;;7.03;4.13;;;;;;;-9.47;52.63;100778.25;5034915;28;20140;-80
2022/03/09 05:50:09;;;;;;;16.52;5.60;;;;;;;-9.44;52.32;100750.72;5036074;28;20409;-78
2022/03/09 05:52:36;;;;;;;8.45;3.42;;;;;;;-9.36;52.12;100754.84;5035681;28;20099;-79
2022/03/09 05:55:04;;;;;;;6.25;3.45;;;;;;;-9.46;51.47;100777.53;5036018;28;20068;-78
2022/03/09 05:57:31;;;;;;;7.18;3.80;;;;;;;-9.35;51.91;100776.91;5034800;28;20061;-79
2022/03/09 05:59:59;;;;;;;8.73;3.95;;;;;;;-9.28;51.28;100759.03;5036474;28;20119;-80
2022/03/09 06:02:26;;;;;;;10.90;3.78;;;;;;;-9.39;51.51;100766.34;5035297;28;20493;-80
2022/03/09 06:04:53;;;;;;;10.38;4.00;;;;;;;-9.37;51.72;100742.09;5036518;28;20141;-81
2022/03/09 06:07:20;;;;;;;16.90;4.68;;;;;;;-9.25;51.13;100749.94;5037613;28;20148;-79
2022/03/09 06:09:49;;;;;;;10.65;3.90;;;;;;;-9.10;51.39;100762.44;5044270;28;20056;-80
2022/03/09 06:12:16;;;;;;;9.40;3.95;;;;;;;-9.09;50.61;100750.66;5043164;28;20103;-80
2022/03/09 06:14:44;;;;;;;8.45;4.03;;;;;;;-9.21;50.60;100737.72;5042523;28;20084;-79
2022/03/09 06:17:11;;;;;;;11.55;4.53;;;;;;;-8.93;50.60;100780.84;5035322;28;20111;-79
2022/03/09 06:19:39;;;;;;;14.07;5.03;;;;;;;-8.56;50.42;100774.19;5034785;28;20053;-79
2022/03/09 06:22:05;;;;;;;10.63;4.20;;;;;;;-8.34;49.49;100736.50;5046197;28;20057;-79
2022/03/09 06:24:32;;;;;;;8.40;4.00;;;;;;;-8.16;49.73;100755.03;5034088;28;20061;-79
2022/03/09 06:26:59;;;;;;;12.55;3.97;;;;;;;-7.74;48.98;100768.19;5034127;28;20406;-79
2022/03/09 06:29:26;;;;;;;10.02;4.03;;;;;;;-7.36;48.22;100775.78;5035240;28;20077;-79
2022/03/09 06:31:55;;;;;;;11.48;4.32;;;;;;;-7.04;48.22;100786.22;5035067;28;20049;-78
2022/03/09 06:34:22;;;;;;;14.18;4.53;;;;;;;-6.64;47.57;100787.19;5035170;28;20061;-78
2022/03/09 06:36:51;;;;;;;9.98;4.25;;;;;;;-6.41;47.13;100778.06;5035059;28;20054;-80
2022/03/09 06:39:19;;;;;;;12.30;4.15;;;;;;;-6.42;46.71;100794.09;5034788;28;20057;-78
2022/03/09 06:41:46;;;;;;;9.68;3.75;;;;;;;-6.80;47.09;100778.97;5034589;28;20049;-78
2022/03/09 06:44:14;;;;;;;11.13;4.30;;;;;;;-6.84;47.40;100776.91;5034816;28;20067;-77
2022/03/09 06:46:42;;;;;;;12.40;4.10;;;;;;;-6.85;47.65;100800.56;5034971;28;20065;-78
2022/03/09 06:49:09;;;;;;;16.42;4.57;;;;;;;-6.86;47.63;100783.50;5037354;28;20516;-79
2022/03/09 06:51:36;;;;;;;8.40;3.58;;;;;;;-6.72;47.05;100770.38;5034074;28;20422;-80
2022/03/09 06:54:03;;;;;;;5.90;3.03;;;;;;;-6.84;47.02;100785.47;5034837;28;20072;-78
2022/03/09 06:56:30;;;;;;;12.13;3.90;;;;;;;-6.95;46.76;100778.53;5039890;28;20433;-78
2022/03/09 06:58:57;;;;;;;6.03;3.00;;;;;;;-6.98;46.84;100777.38;5034921;28;20054;-80
2022/03/09 07:01:24;;;;;;;6.47;3.22;;;;;;;-6.95;45.94;100786.16;5034730;28;20108;-77
2022/03/09 07:03:51;;;;;;;6.43;3.00;;;;;;;-7.05;45.91;100775.97;5034815;28;20497;-78
2022/03/09 07:06:18;;;;;;;11.23;4.15;;;;;;;-6.88;45.92;100772.31;5038330;28;20190;-80
2022/03/09 07:08:45;;;;;;;8.45;3.75;;;;;;;-6.58;45.31;100789.38;5043878;28;20053;-79
2022/03/09 07:11:12;;;;;;;13.65;4.20;;;;;;;-6.82;44.53;100761.06;5056553;28;20532;-79
2022/03/09 07:13:38;;;;;;;7.43;2.72;;;;;;;-6.81;45.41;100792.44;5055748;28;20057;-78
2022/03/09 07:16:05;;;;;;;8.57;3.17;;;;;;;-6.77;45.51;100788.50;5053727;28;20063;-78
2022/03/09 07:18:33;;;;;;;10.13;4.15;;;;;;;-6.82;44.03;100789.03;5055941;28;20079;-82
2022/03/09 07:21:00;;;;;;;7.00;3.47;;;;;;;-7.05;44.49;100793.75;5053041;28;20468;-79
2022/03/09 07:23:27;;;;;;;8.52;3.67;;;;;;;-7.18;44.68;100799.38;5054339;28;20152;-79
2022/03/09 07:25:54;;;;;;;6.70;3.28;;;;;;;-7.33;45.06;100755.75;5054072;28;20084;-78
2022/03/09 07:28:21;;;;;;;9.68;3.55;;;;;;;-6.75;44.56;100787.00;5053487;28;20148;-80
2022/03/09 07:30:48;;;;;;;8.00;3.40;;;;;;;-6.53;43.07;100795.72;5046814;28;20065;-79
2022/03/09 07:33:17;;;;;;;10.07;3.80;;;;;;;-6.76;43.47;100796.28;5034296;28;20057;-79
2022/03/09 07:35:47;;;;;;;5.50;3.10;;;;;;;-6.87;43.31;100794.44;5033560;28;20053;-79
2022/03/09 07:38:14;;;;;;;6.97;2.85;;;;;;;-7.17;43.28;100787.56;5033868;28;20037;-79
2022/03/09 07:40:42;;;;;;;7.13;3.45;;;;;;;-7.30;44.15;100778.88;5033469;28;20053;-80
2022/03/09 07:43:09;;;;;;;8.80;3.25;;;;;;;-7.16;43.56;100795.34;5038554;28;20069;-79
2022/03/09 07:45:39;;;;;;;4.95;3.10;;;;;;;-7.12;43.50;100806.63;5052559;28;20124;-79
2022/03/09 07:48:06;;;;;;;8.13;3.45;;;;;;;-7.25;42.49;100810.66;5053373;28;20496;-78
2022/03/09 07:50:32;;;;;;;7.00;3.15;;;;;;;-7.54;42.75;100786.84;5053126;28;20057;-79
2022/03/09 07:53:01;;;;;;;7.35;2.90;;;;;;;-7.22;42.59;100794.78;5053353;28;20056;-81
2022/03/09 07:55:28;;;;;;;5.93;3.05;;;;;;;-7.19;42.79;100758.63;5053398;28;20509;-80
2022/03/09 07:57:55;;;;;;;7.15;3.63;;;;;;;-6.87;42.26;100777.56;5051648;28;20437;-77
2022/03/09 08:00:22;;;;;;;9.40;3.13;;;;;;;-6.65;42.19;100781.94;5053330;28;20052;-78
2022/03/09 08:02:49;;;;;;;7.50;2.53;;;;;;;-6.65;41.30;100797.19;5053028;28;20094;-76
2022/03/09 08:05:17;;;;;;;11.40;3.63;;;;;;;-6.59;41.58;100808.78;5053071;28;20473;-81
2022/03/09 08:07:45;;;;;;;7.72;2.25;;;;;;;-6.50;41.32;100823.06;5052733;28;20045;-76
2022/03/09 08:10:14;;;;;;;7.63;2.97;;;;;;;-6.63;40.34;100793.13;5054912;28;20049;-79
2022/03/09 08:12:40;;;;;;;7.00;3.03;;;;;;;-6.69;39.63;100774.81;5052902;28;20497;-78
2022/03/09 08:15:10;;;;;;;6.15;2.72;;;;;;;-6.48;39.39;100809.72;5052964;28;20408;-77
2022/03/09 08:17:37;;;;;;;3.92;1.95;;;;;;;-6.60;39.23;100753.63;5052718;28;20489;-79
2022/03/09 08:20:05;;;;;;;5.13;2.70;;;;;;;-6.13;39.20;100806.75;5052860;28;20072;-80
2022/03/09 08:22:31;;;;;;;5.53;2.13;;;;;;;-6.07;38.38;100807.25;5052496;28;20060;-81
2022/03/09 08:24:59;;;;;;;7.13;2.80;;;;;;;-6.29;38.18;100798.56;5051281;28;20163;-79
2022/03/09 08:27:26;;;;;;;5.82;2.25;;;;;;;-6.24;37.95;100822.72;5050959;28;20463;-79
2022/03/09 08:29:55;;;;;;;5.78;2.72;;;;;;;-6.28;38.12;100802.88;5052959;28;20077;-79
2022/03/09 08:32:23;;;;;;;4.53;2.35;;;;;;;-6.19;38.35;100802.03;5052855;28;20053;-79
2022/03/09 08:34:50;;;;;;;5.25;2.10;;;;;;;-6.06;37.86;100818.34;5053097;28;20524;-79
2022/03/09 08:37:17;;;;;;;4.40;2.30;;;;;;;-6.07;37.96;100814.00;5052470;28;20052;-78
2022/03/09 08:39:48;;;;;;;4.55;2.70;;;;;;;-6.11;38.12;100801.78;5047509;28;20473;-80
2022/03/09 08:42:16;;;;;;;4.90;2.25;;;;;;;-6.21;38.50;100825.56;5048794;28;20088;-80
2022/03/09 08:44:43;;;;;;;4.82;1.85;;;;;;;-6.46;38.36;100812.38;5032364;28;20092;-80
2022/03/09 08:47:10;;;;;;;7.20;2.47;;;;;;;-6.55;39.14;100802.31;5032793;28;20050;-80
2022/03/09 08:49:39;;;;;;;4.72;2.42;;;;;;;-6.50;38.74;100823.94;5032551;28;20049;-80
2022/03/09 08:52:09;;;;;;;4.68;2.40;;;;;;;-6.56;38.26;100825.06;5032737;28;20061;-79
2022/03/09 08:54:36;;;;;;;5.38;2.28;;;;;;;-6.68;38.06;100800.38;5034577;28;20107;-79
2022/03/09 08:57:04;;;;;;;7.00;3.25;;;;;;;-6.63;38.71;100768.59;5052833;28;20083;-82
2022/03/09 08:59:33;;;;;;;3.67;2.00;;;;;;;-6.49;37.83;100785.06;5041954;28;20509;-81
2022/03/09 09:02:01;;;;;;;4.15;1.77;;;;;;;-6.32;38.48;100829.72;5053018;28;20103;-78
2022/03/09 09:04:33;;;;;;;5.65;2.05;;;;;;;-6.41;38.65;100794.25;5050491;28;20060;-79
2022/03/09 09:07:00;;;;;;;3.72;2.30;;;;;;;-6.30;38.49;100830.75;5051782;28;20622;-78
2022/03/09 09:09:27;;;;;;;5.60;2.40;;;;;;;-6.28;38.05;100823.22;5051430;28;20052;-80
2022/03/09 09:11:54;;;;;;;6.05;2.47;;;;;;;-6.21;38.14;100826.44;5051199;28;20061;-82
2022/03/09 09:14:21;;;;;;;7.05;2.90;;;;;;;-6.10;38.02;100835.00;5051844;28;20087;-79
2022/03/09 09:16:48;;;;;;;4.25;2.28;;;;;;;-6.20;37.97;100796.81;5053678;28;20053;-84
2022/03/09 09:19:15;;;;;;;4.45;2.20;;;;;;;-6.21;38.03;100826.44;5052718;28;20060;-80
2022/03/09 09:21:45;;;;;;;2.75;1.77;;;;;;;-6.34;37.78;100804.94;5051073;28;20091;-81
2022/03/09 09:24:15;;;;;;;4.47;2.30;;;;;;;-6.12;38.04;100846.69;5053620;28;20060;-80
2022/03/09 09:26:44;;;;;;;5.43;2.60;;;;;;;-6.09;37.83;100831.66;5059053;28;20065;-80
2022/03/09 09:29:20;;;;;;;2.90;2.22;;;;;;;-5.99;38.09;100818.09;5052432;28;20119;-82
2022/03/09 09:31:48;;;;;;;4.50;2.15;;;;;;;-5.95;38.38;100820.13;5052396;28;20052;-81
2022/03/09 09:34:16;;;;;;;6.28;2.92;;;;;;;-5.91;37.87;100803.44;5052677;28;20059;-83
2022/03/09 09:36:47;;;;;;;6.03;2.80;;;;;;;-5.65;37.75;100826.84;5052532;28;20084;-81
2022/03/09 09:39:15;;;;;;;4.43;2.15;;;;;;;-5.64;36.97;100827.72;5052632;28;20424;-80
2022/03/09 09:41:44;;;;;;;8.27;3.30;;;;;;;-5.97;37.47;100769.09;5052061;28;20057;-81
2022/03/09 09:44:12;;;;;;;6.13;2.45;;;;;;;-5.59;37.42;100829.91;5052671;28;20060;-81
2022/03/09 09:46:43;;;;;;;5.63;2.00;;;;;;;-5.56;37.56;100836.91;5051837;28;20057;-78
2022/03/09 09:49:12;;;;;;;4.03;2.08;;;;;;;-5.52;37.43;100838.94;5053017;28;20049;-83
2022/03/09 09:51:40;;;;;;;12.57;3.47;;;;;;;-5.57;37.52;100824.91;5062337;28;20060;-81
2022/03/09 09:54:10;;;;;;;8.75;2.88;;;;;;;-5.49;37.34;100826.44;5063680;28;20059;-81
2022/03/09 09:56:39;;;;;;;3.95;2.60;;;;;;;-5.44;37.14;100817.56;5065205;28;20124;-79
2022/03/09 09:59:07;;;;;;;5.57;2.88;;;;;;;-5.50;37.04;100805.97;5058054;28;20055;-82
2022/03/09 10:01:40;;;;;;;8.10;2.75;;;;;;;-5.32;37.21;100827.84;5055672;28;20049;-79
2022/03/09 10:04:08;;;;;;;7.53;2.85;;;;;;;-5.39;37.05;100845.94;5055936;28;20101;-81
2022/03/09 10:06:37;;;;;;;9.38;2.53;;;;;;;-5.38;37.27;100833.34;5055514;28;20139;-79
2022/03/09 10:09:09;;;;;;;4.75;2.97;;;;;;;-5.27;36.70;100836.78;5055214;28;20064;-78
2022/03/09 10:11:50;;;;;;;5.50;2.58;;;;;;;-5.32;36.65;100843.13;5055494;28;20053;-79
2022/03/09 10:14:38;;;;;;;4.25;2.35;;;;;;;-5.28;36.61;100857.00;5055615;28;20067;-79
2022/03/09 10:17:07;;;;;;;7.47;2.80;;;;;;;-5.39;36.76;100795.88;5054866;28;20060;-81
2022/03/09 10:19:37;;;;;;;5.22;2.80;;;;;;;-5.13;36.57;100840.44;5055183;28;20091;-79
2022/03/09 10:22:22;;;;;;;3.80;2.20;;;;;;;-5.10;36.21;100827.03;5053602;28;20049;-78
2022/03/09 10:25:09;;;;;;;4.90;2.13;;;;;;;-5.00;36.07;100837.22;5054057;28;20060;-79
2022/03/09 10:27:42;;;;;;;4.95;1.83;;;;;;;-4.99;36.69;100867.94;5053619;28;20409;-81
2022/03/09 10:30:23;;;;;;;4.75;2.20;;;;;;;-5.10;36.28;100822.81;5056000;28;20049;-78
2022/03/09 10:32:54;;;;;;;5.20;2.10;;;;;;;-4.99;35.69;100841.53;5056312;28;20102;-80
2022/03/09 10:35:20;;;;;;;6.30;2.20;;;;;;;-5.00;35.68;100847.41;5055440;28;20071;-80
2022/03/09 10:37:48;;;;;;;8.77;1.98;;;;;;;-4.92;35.36;100855.69;5051694;28;20560;-79
2022/03/09 10:40:21;;;;;;;2.67;1.90;;;;;;;-5.00;35.49;100840.66;5041077;28;20080;-79
2022/03/09 10:42:49;;;;;;;3.42;2.15;;;;;;;-4.82;35.70;100846.34;5045559;28;20061;-78
2022/03/09 10:45:18;;;;;;;4.60;2.25;;;;;;;-4.84;35.77;100852.06;5051716;28;20064;-78
2022/03/09 10:47:47;;;;;;;8.85;2.58;;;;;;;-4.98;35.47;100831.47;5055223;28;20053;-79
2022/03/09 10:50:16;;;;;;;3.83;2.40;;;;;;;-4.69;35.54;100844.75;5055005;28;20459;-78
2022/03/09 10:52:44;;;;;;;3.03;1.95;;;;;;;-4.59;35.13;100853.25;5058557;28;20716;-78
2022/03/09 10:55:35;;;;;;;3.70;2.20;;;;;;;-4.67;35.39;100849.22;5056104;28;20413;-78
2022/03/09 10:58:15;;;;;;;4.93;2.03;;;;;;;-4.69;35.17;100850.75;5060414;28;20049;-80
2022/03/09 11:00:46;;;;;;;;;;;;;;;-4.74;35.60;100847.81;5057417;28;20053;-80
2022/03/09 11:03:25;;;;;;;4.07;2.17;;;;;;;-4.73;35.03;100858.94;5054253;28;19958;-80
2022/03/09 11:05:52;;;;;;;7.53;2.42;;;;;;;-4.74;35.26;100872.44;5054458;28;20041;-78
2022/03/09 11:08:25;;;;;;;5.35;2.22;;;;;;;-4.95;35.17;100846.09;5054451;28;20045;-81
2022/03/09 11:10:52;;;;;;;6.03;2.40;;;;;;;-4.58;35.54;100864.34;5049951;28;20136;-79
2022/03/09 11:13:19;;;;;;;4.28;2.00;;;;;;;-4.54;35.07;100876.56;5041811;28;20052;-83
2022/03/09 11:15:49;;;;;;;3.13;1.95;;;;;;;-4.66;34.38;100883.28;5053478;28;20056;-80
2022/03/09 11:18:19;;;;;;;3.05;1.70;;;;;;;-4.82;34.61;100871.84;5054108;28;20049;-80
2022/03/09 11:20:52;;;;;;;3.72;2.05;;;;;;;-4.95;34.68;100856.31;5054071;28;20057;-79
2022/03/09 11:23:20;;;;;;;4.95;2.00;;;;;;;-4.69;34.63;100875.34;5054555;28;20138;-80
2022/03/09 11:26:19;;;;;;;4.32;2.13;;;;;;;-4.57;34.61;100881.44;5053996;28;20509;-77
2022/03/09 11:28:46;;;;;;;3.58;1.85;;;;;;;-4.58;34.75;100875.47;5053999;28;20049;-81
2022/03/09 11:31:17;;;;;;;3.05;1.58;;;;;;;-4.70;33.83;100884.66;5053847;28;20053;-77